createdAt,value
2023-01-17T00:02:03.728Z,97455.53
2023-01-17T00:04:49.054Z,97453.94
2023-01-17T00:07:36.579Z,97453.16
2023-01-17T00:10:07.488Z,97452.13
2023-01-17T00:12:36.939Z,97449.75
2023-01-17T00:15:05.393Z,97440.00
2023-01-17T00:17:32.956Z,97444.25
2023-01-17T00:20:20.078Z,97430.75
2023-01-17T00:23:05.388Z,97438.97
2023-01-17T00:25:53.695Z,97436.03
2023-01-17T00:28:21.655Z,97431.56
2023-01-17T00:30:48.759Z,97431.03
2023-01-17T00:33:15.230Z,97427.88
2023-01-17T00:35:42.164Z,97432.06
2023-01-17T00:38:11.066Z,97431.56
2023-01-17T00:40:39.104Z,97429.97
2023-01-17T00:43:25.064Z,97429.97
2023-01-17T00:46:11.651Z,97429.97
2023-01-17T00:48:57.724Z,97430.53
2023-01-17T00:51:43.508Z,97427.88
2023-01-17T00:54:28.801Z,97419.34
2023-01-17T00:57:14.085Z,97419.34
2023-01-17T00:59:59.450Z,97424.63
2023-01-17T01:02:46.196Z,97418.75
2023-01-17T01:05:32.246Z,97429.34
2023-01-17T01:08:18.121Z,97426.06
2023-01-17T01:11:05.056Z,97422.38
2023-01-17T01:13:51.081Z,97423.84
2023-01-17T01:16:37.412Z,97420.06
2023-01-17T01:19:24.409Z,97429.88
2023-01-17T01:22:09.818Z,97427.03
2023-01-17T01:24:55.279Z,97421.50
2023-01-17T01:27:40.503Z,97419.97
2023-01-17T01:30:26.893Z,97423.13
2023-01-17T01:33:12.373Z,97423.66
2023-01-17T01:35:41.852Z,97419.69
2023-01-17T01:38:09.588Z,97422.09
2023-01-17T01:40:43.047Z,97417.34
2023-01-17T01:43:13.081Z,97414.19
2023-01-17T01:45:41.292Z,97406.72
2023-01-17T01:48:23.604Z,97402.56
2023-01-17T01:50:52.691Z,97405.09
2023-01-17T01:53:22.103Z,97405.06
2023-01-17T01:55:51.905Z,97405.09
2023-01-17T01:58:23.176Z,97400.38
2023-01-17T02:00:51.392Z,97406.03
2023-01-17T02:03:22.425Z,97401.47
2023-01-17T02:05:50.225Z,97398.59
2023-01-17T02:08:23.359Z,97405.16
2023-01-17T02:10:51.695Z,97403.53
2023-01-17T02:13:21.912Z,97402.56
2023-01-17T02:15:58.017Z,97404.59
2023-01-17T02:18:37.111Z,97403.78
2023-01-17T02:21:24.105Z,97404.94
2023-01-17T02:24:24.205Z,97398.53
2023-01-17T02:26:58.110Z,97399.31
2023-01-17T02:30:21.640Z,97398.19
2023-01-17T02:33:01.037Z,97401.38
2023-01-17T02:35:35.367Z,97401.97
2023-01-17T02:38:16.037Z,97403.88
2023-01-17T02:40:49.189Z,97397.19
2023-01-17T02:43:19.298Z,97398.66
2023-01-17T02:45:46.923Z,97398.66
2023-01-17T02:48:20.604Z,97405.47
2023-01-17T02:51:17.695Z,97393.41
2023-01-17T02:54:00.652Z,97394.50
2023-01-17T02:56:41.736Z,97398.72
2023-01-17T02:59:20.131Z,97394.09
2023-01-17T03:02:08.096Z,97395.22
2023-01-17T03:04:43.365Z,97391.94
2023-01-17T03:07:16.232Z,97399.16
2023-01-17T03:09:45.808Z,97406.03
2023-01-17T03:12:15.263Z,97393.06
2023-01-17T03:14:42.794Z,97389.19
2023-01-17T03:17:10.328Z,97390.25
2023-01-17T03:19:39.174Z,97395.31
2023-01-17T03:22:06.658Z,97394.69
2023-01-17T03:24:34.177Z,97397.28
2023-01-17T03:27:01.689Z,97397.31
2023-01-17T03:29:29.229Z,97400.25
2023-01-17T03:31:56.713Z,97389.41
2023-01-17T03:34:24.431Z,97401.00
2023-01-17T03:36:53.251Z,97389.91
2023-01-17T03:39:20.750Z,97399.38
2023-01-17T03:41:48.298Z,97396.97
2023-01-17T03:44:15.829Z,97403.00
2023-01-17T03:46:43.412Z,97403.25
2023-01-17T03:49:11.094Z,97409.72
2023-01-17T03:51:38.695Z,97411.56
2023-01-17T03:54:07.701Z,97410.84
2023-01-17T03:56:35.206Z,97411.84
2023-01-17T03:59:03.274Z,97405.47
2023-01-17T04:01:30.871Z,97415.22
2023-01-17T04:03:58.620Z,97405.25
2023-01-17T04:06:26.151Z,97399.97
2023-01-17T04:08:53.854Z,97399.97
2023-01-17T04:11:22.746Z,97406.34
2023-01-17T04:13:50.260Z,97394.50
2023-01-17T04:16:19.308Z,97395.81
2023-01-17T04:18:46.837Z,97395.84
2023-01-17T04:21:14.396Z,97396.63
2023-01-17T04:23:41.966Z,97395.41
2023-01-17T04:26:10.020Z,97399.06
2023-01-17T04:28:39.151Z,97397.44
2023-01-17T04:31:07.043Z,97404.56
2023-01-17T04:33:34.579Z,97396.63
2023-01-17T04:36:02.107Z,97402.13
2023-01-17T04:38:29.676Z,97403.13
2023-01-17T04:40:57.215Z,97401.75
2023-01-17T04:43:24.890Z,97404.41
2023-01-17T04:45:57.014Z,97414.66
2023-01-17T04:48:24.818Z,97416.13
2023-01-17T04:50:52.486Z,97419.53
2023-01-17T04:53:19.990Z,97436.69
2023-01-17T04:55:47.838Z,97437.03
2023-01-17T04:58:15.375Z,97443.25
2023-01-17T05:00:42.848Z,97452.97
2023-01-17T05:03:11.738Z,97440.75
2023-01-17T05:05:39.236Z,97448.66
2023-01-17T05:08:06.744Z,97454.16
2023-01-17T05:10:34.233Z,97459.72
2023-01-17T05:13:02.875Z,97459.06
2023-01-17T05:15:30.937Z,97460.72
2023-01-17T05:17:58.678Z,97453.69
2023-01-17T05:20:28.615Z,97455.31
2023-01-17T05:22:56.799Z,97466.81
2023-01-17T05:25:25.677Z,97466.97
2023-01-17T05:27:53.615Z,97468.50
2023-01-17T05:30:22.075Z,97473.66
2023-01-17T05:32:50.372Z,97473.91
2023-01-17T05:35:19.549Z,97468.69
2023-01-17T05:37:49.912Z,97467.22
2023-01-17T05:40:17.835Z,97481.25
2023-01-17T05:42:47.040Z,97475.22
2023-01-17T05:45:16.784Z,97479.19
2023-01-17T05:47:44.898Z,97483.66
2023-01-17T05:50:13.127Z,97483.00
2023-01-17T05:52:41.454Z,97490.69
2023-01-17T05:55:11.139Z,97494.56
2023-01-17T05:57:39.671Z,97510.41
2023-01-17T06:00:08.588Z,97515.69
2023-01-17T06:02:36.208Z,97511.63
2023-01-17T06:05:03.916Z,97518.09
2023-01-17T06:07:31.479Z,97539.06
2023-01-17T06:09:59.161Z,97526.66
2023-01-17T06:12:28.105Z,97537.44
2023-01-17T06:14:55.723Z,97550.09
2023-01-17T06:17:23.215Z,97547.41
2023-01-17T06:19:50.733Z,97561.47
2023-01-17T06:22:18.241Z,97559.00
2023-01-17T06:24:45.821Z,97557.97
2023-01-17T06:27:13.327Z,97579.50
2023-01-17T06:29:42.243Z,97603.72
2023-01-17T06:32:10.066Z,97596.19
2023-01-17T06:34:38.886Z,97621.06
2023-01-17T06:37:06.533Z,97624.41
2023-01-17T06:39:34.151Z,97629.28
2023-01-17T06:42:01.957Z,97624.91
2023-01-17T06:44:29.565Z,97622.09
2023-01-17T06:46:58.475Z,97632.88
2023-01-17T06:49:26.937Z,97651.47
2023-01-17T06:51:54.504Z,97697.94
2023-01-17T06:54:22.032Z,97657.22
2023-01-17T06:56:49.587Z,97671.00
2023-01-17T06:59:17.087Z,97690.50
2023-01-17T07:01:44.676Z,97674.66
2023-01-17T07:04:13.587Z,97679.47
2023-01-17T07:06:41.117Z,97687.13
2023-01-17T07:09:08.588Z,97687.94
2023-01-17T07:11:36.146Z,97694.34
2023-01-17T07:14:03.622Z,97701.53
2023-01-17T07:16:31.193Z,97696.13
2023-01-17T07:18:58.765Z,97705.31
2023-01-17T07:21:27.631Z,97706.34
2023-01-17T07:23:55.551Z,97723.78
2023-01-17T07:26:23.035Z,97728.94
2023-01-17T07:28:50.569Z,97726.50
2023-01-17T07:31:18.112Z,97737.06
2023-01-17T07:33:45.669Z,97737.31
2023-01-17T07:36:13.193Z,97747.28
2023-01-17T07:38:43.840Z,97746.66
2023-01-17T07:41:11.364Z,97754.59
2023-01-17T07:43:38.992Z,97750.66
2023-01-17T07:46:07.347Z,97770.84
2023-01-17T07:48:35.185Z,97773.59
2023-01-17T07:51:02.780Z,97782.19
2023-01-17T07:53:32.658Z,97794.72
2023-01-17T07:56:04.239Z,97800.06
2023-01-17T07:58:32.047Z,97804.06
2023-01-17T08:01:03.832Z,97803.59
2023-01-17T08:03:32.280Z,97810.03
2023-01-17T08:06:00.222Z,97820.81
2023-01-17T08:08:28.588Z,97833.63
2023-01-17T08:10:56.355Z,97838.22
2023-01-17T08:13:25.545Z,97849.28
2023-01-17T08:15:54.360Z,97855.41
2023-01-17T08:18:22.003Z,97849.69
2023-01-17T08:20:49.508Z,97859.56
2023-01-17T08:23:17.078Z,97858.31
2023-01-17T08:25:44.643Z,97862.31
2023-01-17T08:28:12.691Z,97863.78
2023-01-17T08:30:41.583Z,97873.97
2023-01-17T08:33:09.244Z,97874.06
2023-01-17T08:35:36.791Z,97883.50
2023-01-17T08:38:04.874Z,97890.09
2023-01-17T08:40:33.101Z,97898.25
2023-01-17T08:43:01.947Z,97898.59
2023-01-17T08:45:29.908Z,97895.03
2023-01-17T08:48:00.349Z,97909.38
2023-01-17T08:50:28.254Z,97912.84
2023-01-17T08:53:01.205Z,97920.03
2023-01-17T08:55:29.393Z,97919.47
2023-01-17T08:57:57.789Z,97922.22
2023-01-17T09:00:27.012Z,97923.94
2023-01-17T09:02:54.741Z,97927.50
2023-01-17T09:05:23.635Z,97934.28
2023-01-17T09:07:51.390Z,97930.72
2023-01-17T09:10:19.064Z,97929.91
2023-01-17T09:12:46.708Z,97935.84
2023-01-17T09:15:17.661Z,97938.69
2023-01-17T09:17:45.235Z,97940.41
2023-01-17T09:20:13.456Z,97946.91
2023-01-17T09:22:42.366Z,97953.00
2023-01-17T09:25:10.342Z,97960.47
2023-01-17T09:27:37.892Z,97959.81
2023-01-17T09:30:06.379Z,97974.28
2023-01-17T09:32:33.961Z,97983.47
2023-01-17T09:35:01.521Z,97986.69
2023-01-17T09:37:29.973Z,97981.50
2023-01-17T09:39:58.848Z,97984.47
2023-01-17T09:42:35.257Z,97981.63
2023-01-17T09:45:03.078Z,97990.22
2023-01-17T09:47:35.546Z,97992.28
2023-01-17T09:50:18.070Z,98006.06
2023-01-17T09:52:46.126Z,98010.31
2023-01-17T09:55:16.868Z,98018.22
2023-01-17T09:57:51.536Z,98021.88
2023-01-17T10:00:34.523Z,98025.78
2023-01-17T10:03:29.991Z,98033.59
2023-01-17T10:06:07.145Z,98032.78
2023-01-17T10:09:07.930Z,98045.75
2023-01-17T10:11:49.850Z,98037.53
2023-01-17T10:14:34.211Z,98035.09
2023-01-17T10:17:13.512Z,98034.97
2023-01-17T10:19:56.318Z,98032.91
2023-01-17T10:22:51.124Z,98024.63
2023-01-17T10:25:36.765Z,98040.00
2023-01-17T10:28:15.330Z,98037.69
2023-01-17T10:30:49.399Z,98030.69
2023-01-17T10:33:20.707Z,98033.44
2023-01-17T10:35:54.810Z,98032.38
2023-01-17T10:38:29.871Z,98037.63
2023-01-17T10:41:02.835Z,98036.69
2023-01-17T10:43:41.508Z,98042.22
2023-01-17T10:46:16.306Z,98044.13
2023-01-17T10:48:47.575Z,98034.69
2023-01-17T10:51:33.400Z,98045.09
2023-01-17T10:54:14.968Z,98057.56
2023-01-17T10:56:42.633Z,98056.47
2023-01-17T10:59:29.507Z,98069.97
2023-01-17T11:01:57.410Z,98070.28
2023-01-17T11:04:33.248Z,98069.63
2023-01-17T11:07:12.917Z,98068.94
2023-01-17T11:09:42.235Z,98075.56
2023-01-17T11:12:19.545Z,98080.38
2023-01-17T11:14:59.455Z,98090.63
2023-01-17T11:17:28.430Z,98104.06
2023-01-17T11:20:08.818Z,98085.28
2023-01-17T11:22:36.857Z,98089.06
2023-01-17T11:25:05.341Z,98091.38
2023-01-17T11:27:35.954Z,98095.03
2023-01-17T11:30:15.927Z,98095.03
2023-01-17T11:32:53.665Z,98084.47
2023-01-17T11:35:25.409Z,98076.03
2023-01-17T11:37:59.099Z,98073.19
2023-01-17T11:40:30.682Z,98082.38
2023-01-17T11:43:20.364Z,98081.34
2023-01-17T11:46:03.443Z,98087.94
2023-01-17T11:48:39.286Z,98091.09
2023-01-17T11:51:22.121Z,98093.22
2023-01-17T11:53:49.824Z,98098.88
2023-01-17T11:56:31.129Z,98103.50
2023-01-17T11:59:23.459Z,98096.81
2023-01-17T12:02:04.008Z,98107.84
2023-01-17T12:04:39.419Z,98111.56
2023-01-17T12:07:29.220Z,98115.69
2023-01-17T12:10:07.859Z,98109.19
2023-01-17T12:13:08.291Z,98108.50
2023-01-17T12:15:49.606Z,98105.63
2023-01-17T12:18:33.979Z,98117.09
2023-01-17T12:21:16.356Z,98120.84
2023-01-17T12:24:03.026Z,98123.31
2023-01-17T12:26:37.576Z,98124.97
2023-01-17T12:29:28.947Z,98115.81
2023-01-17T12:32:10.832Z,98117.75
2023-01-17T12:34:42.593Z,98118.28
2023-01-17T12:37:20.234Z,98125.94
2023-01-17T12:39:54.935Z,98131.59
2023-01-17T12:42:26.888Z,98134.78
2023-01-17T12:44:59.204Z,98140.03
2023-01-17T12:47:26.805Z,98134.56
2023-01-17T12:50:05.078Z,98148.03
2023-01-17T12:52:48.589Z,98144.41
2023-01-17T12:55:21.312Z,98151.09
2023-01-17T12:57:56.978Z,98159.28
2023-01-17T13:00:29.482Z,98163.28
2023-01-17T13:03:04.102Z,98162.13
2023-01-17T13:05:38.208Z,98157.19
2023-01-17T13:08:18.181Z,98175.59
2023-01-17T13:10:51.130Z,98189.84
2023-01-17T13:13:22.409Z,98198.47
2023-01-17T13:15:52.641Z,98176.28
2023-01-17T13:18:25.898Z,98186.66
2023-01-17T13:21:08.245Z,98184.47
2023-01-17T13:23:50.895Z,98185.03
2023-01-17T13:26:27.599Z,98180.31
2023-01-17T13:29:05.910Z,98185.28
2023-01-17T13:31:45.487Z,98191.34
2023-01-17T13:34:35.080Z,98188.38
2023-01-17T13:37:22.947Z,98191.13
2023-01-17T13:40:06.423Z,98194.22
2023-01-17T13:42:45.252Z,98195.03
2023-01-17T13:45:20.138Z,98192.72
2023-01-17T13:47:47.940Z,98200.28
2023-01-17T13:50:47.801Z,98202.22
2023-01-17T13:53:48.004Z,98200.47
2023-01-17T13:56:24.770Z,98201.53
2023-01-17T13:58:57.905Z,98201.69
2023-01-17T14:01:51.450Z,98215.28
2023-01-17T14:04:19.318Z,98207.94
2023-01-17T14:06:49.909Z,98212.13
2023-01-17T14:09:28.071Z,98207.28
2023-01-17T14:12:25.456Z,98211.34
2023-01-17T14:14:56.580Z,98213.53
2023-01-17T14:17:42.904Z,98222.56
2023-01-17T14:20:44.585Z,98225.19
2023-01-17T14:23:23.821Z,98231.28
2023-01-17T14:25:53.662Z,98230.81
2023-01-17T14:28:30.182Z,98233.78
2023-01-17T14:30:59.912Z,98237.38
2023-01-17T14:33:30.527Z,98229.88
2023-01-17T14:36:01.696Z,98228.97
2023-01-17T14:38:31.856Z,98238.53
2023-01-17T14:41:03.457Z,98240.22
2023-01-17T14:43:33.964Z,98246.41
2023-01-17T14:46:04.944Z,98249.66
2023-01-17T14:48:32.584Z,98252.47
2023-01-17T14:51:01.718Z,98254.97
2023-01-17T14:53:31.256Z,98255.69
2023-01-17T14:56:02.926Z,98268.22
2023-01-17T14:58:32.528Z,98274.78
2023-01-17T15:01:02.698Z,98277.06
2023-01-17T15:03:34.800Z,98278.88
2023-01-17T15:06:11.807Z,98279.59
2023-01-17T15:08:40.050Z,98287.72
2023-01-17T15:11:16.896Z,98281.97
2023-01-17T15:13:49.408Z,98286.94
2023-01-17T15:16:24.070Z,98295.66
2023-01-17T15:18:52.404Z,98293.00
2023-01-17T15:21:22.607Z,98286.50
2023-01-17T15:23:53.751Z,98288.31
2023-01-17T15:26:26.211Z,98293.00
2023-01-17T15:28:57.228Z,98283.84
2023-01-17T15:31:26.697Z,98292.56
2023-01-17T15:33:57.490Z,98291.78
2023-01-17T15:36:30.076Z,98298.19
2023-01-17T15:39:00.092Z,98290.63
2023-01-17T15:41:32.236Z,98289.59
2023-01-17T15:44:00.254Z,98293.34
2023-01-17T15:46:34.033Z,98300.72
2023-01-17T15:49:19.599Z,98310.47
2023-01-17T15:51:50.737Z,98316.06
2023-01-17T15:54:34.087Z,98305.53
2023-01-17T15:57:17.922Z,98309.75
2023-01-17T15:59:48.752Z,98313.06
2023-01-17T16:02:35.236Z,98320.88
2023-01-17T16:05:05.931Z,98312.34
2023-01-17T16:07:35.631Z,98311.91
2023-01-17T16:10:08.110Z,98315.00
2023-01-17T16:12:37.029Z,98326.16
2023-01-17T16:15:16.392Z,98325.44
2023-01-17T16:17:49.611Z,98334.47
2023-01-17T16:20:20.890Z,98331.59
2023-01-17T16:22:49.381Z,98331.97
2023-01-17T16:25:19.154Z,98341.84
2023-01-17T16:27:48.473Z,98341.28
2023-01-17T16:30:18.186Z,98352.56
2023-01-17T16:32:48.386Z,98350.41
2023-01-17T16:35:20.640Z,98341.19
2023-01-17T16:37:50.129Z,98343.09
2023-01-17T16:40:18.484Z,98349.41
2023-01-17T16:42:46.400Z,98350.56
2023-01-17T16:45:16.274Z,98351.88
2023-01-17T16:47:44.870Z,98349.84
2023-01-17T16:50:15.339Z,98353.75
2023-01-17T16:52:42.906Z,98352.69
2023-01-17T16:55:12.396Z,98360.56
2023-01-17T16:57:40.152Z,98365.41
2023-01-17T17:00:09.509Z,98370.53
2023-01-17T17:02:39.391Z,98370.03
2023-01-17T17:05:08.254Z,98370.84
2023-01-17T17:07:42.490Z,98371.13
2023-01-17T17:10:11.314Z,98376.81
2023-01-17T17:12:38.887Z,98388.69
2023-01-17T17:15:07.460Z,98390.53
2023-01-17T17:17:35.824Z,98390.75
2023-01-17T17:20:05.501Z,98389.06
2023-01-17T17:22:33.402Z,98395.28
2023-01-17T17:25:00.922Z,98403.38
2023-01-17T17:27:28.652Z,98398.53
2023-01-17T17:29:56.171Z,98397.03
2023-01-17T17:32:23.924Z,98396.03
2023-01-17T17:34:51.495Z,98405.53
2023-01-17T17:37:22.363Z,98402.25
2023-01-17T17:39:49.953Z,98403.91
2023-01-17T17:42:19.625Z,98413.09
2023-01-17T17:44:47.246Z,98411.88
2023-01-17T17:47:16.068Z,98421.44
2023-01-17T17:49:43.745Z,98409.16
2023-01-17T17:52:11.518Z,98414.00
2023-01-17T17:54:40.349Z,98424.78
2023-01-17T17:57:08.433Z,98423.38
2023-01-17T17:59:36.039Z,98423.09
2023-01-17T18:02:05.900Z,98428.75
2023-01-17T18:04:33.445Z,98431.16
2023-01-17T18:07:00.974Z,98441.06
2023-01-17T18:09:28.660Z,98440.84
2023-01-17T18:11:58.361Z,98444.03
2023-01-17T18:14:26.929Z,98445.53
2023-01-17T18:16:54.577Z,98455.53
2023-01-17T18:19:24.064Z,98461.81
2023-01-17T18:21:52.276Z,98461.06
2023-01-17T18:24:21.608Z,98465.84
2023-01-17T18:26:51.527Z,98467.19
2023-01-17T18:29:25.927Z,98467.47
2023-01-17T18:31:54.990Z,98473.56
2023-01-17T18:34:26.841Z,98464.34
2023-01-17T18:36:54.450Z,98465.56
2023-01-17T18:39:24.285Z,98473.63
2023-01-17T18:41:52.175Z,98464.88
2023-01-17T18:44:22.371Z,98475.69
2023-01-17T18:46:50.379Z,98467.19
2023-01-17T18:49:19.169Z,98476.03
2023-01-17T18:51:50.507Z,98477.13
2023-01-17T18:54:19.141Z,98476.97
2023-01-17T18:56:46.777Z,98476.28
2023-01-17T18:59:17.973Z,98493.97
2023-01-17T19:01:47.515Z,98486.47
2023-01-17T19:04:17.133Z,98489.47
2023-01-17T19:06:47.952Z,98490.66
2023-01-17T19:09:16.935Z,98487.59
2023-01-17T19:11:46.061Z,98487.19
2023-01-17T19:14:14.350Z,98497.44
2023-01-17T19:16:42.773Z,98492.06
2023-01-17T19:19:14.769Z,98493.72
2023-01-17T19:21:42.440Z,98498.13
2023-01-17T19:24:12.860Z,98508.06
2023-01-17T19:26:40.400Z,98502.56
2023-01-17T19:29:08.007Z,98503.31
2023-01-17T19:31:42.289Z,98505.41
2023-01-17T19:34:13.667Z,98495.66
2023-01-17T19:36:41.690Z,98511.06
2023-01-17T19:39:10.413Z,98499.72
2023-01-17T19:41:42.102Z,98500.56
2023-01-17T19:44:12.086Z,98498.97
2023-01-17T19:46:39.989Z,98497.75
2023-01-17T19:49:09.660Z,98500.91
2023-01-17T19:51:39.552Z,98501.75
2023-01-17T19:54:08.197Z,98506.47
2023-01-17T19:56:35.990Z,98506.09
2023-01-17T19:59:03.629Z,98506.72
2023-01-17T20:01:33.578Z,98519.44
2023-01-17T20:04:02.812Z,98525.53
2023-01-17T20:06:32.117Z,98524.13
2023-01-17T20:09:01.434Z,98526.56
2023-01-17T20:11:29.572Z,98517.84
2023-01-17T20:13:58.671Z,98516.09
2023-01-17T20:16:28.233Z,98524.13
2023-01-17T20:18:56.040Z,98528.00
2023-01-17T20:21:25.902Z,98535.72
2023-01-17T20:23:54.572Z,98534.66
2023-01-17T20:26:29.019Z,98525.59
2023-01-17T20:28:56.539Z,98537.09
2023-01-17T20:31:26.601Z,98536.72
2023-01-17T20:33:56.192Z,98532.69
2023-01-17T20:36:25.620Z,98536.56
2023-01-17T20:38:54.315Z,98538.34
2023-01-17T20:41:24.951Z,98535.13
2023-01-17T20:43:53.887Z,98539.13
2023-01-17T20:46:23.052Z,98532.28
2023-01-17T20:48:52.038Z,98539.19
2023-01-17T20:51:20.786Z,98537.16
2023-01-17T20:53:53.141Z,98542.25
2023-01-17T20:56:20.831Z,98533.13
2023-01-17T20:58:51.648Z,98536.56
2023-01-17T21:01:21.069Z,98539.63
2023-01-17T21:03:51.539Z,98540.00
2023-01-17T21:06:20.567Z,98547.09
2023-01-17T21:08:49.103Z,98548.53
2023-01-17T21:11:19.967Z,98550.56
2023-01-17T21:13:49.698Z,98546.28
2023-01-17T21:16:17.882Z,98549.97
2023-01-17T21:18:47.705Z,98548.56
2023-01-17T21:21:17.933Z,98553.19
2023-01-17T21:23:46.078Z,98554.03
2023-01-17T21:26:16.036Z,98545.53
2023-01-17T21:28:45.676Z,98557.06
2023-01-17T21:31:20.328Z,98552.19
2023-01-17T21:33:48.814Z,98555.06
2023-01-17T21:36:16.713Z,98555.44
2023-01-17T21:38:44.732Z,98552.22
2023-01-17T21:41:12.235Z,98561.09
2023-01-17T21:43:39.791Z,98568.41
2023-01-17T21:46:07.529Z,98569.22
2023-01-17T21:48:36.469Z,98576.50
2023-01-17T21:51:05.537Z,98579.56
2023-01-17T21:53:34.764Z,98577.94
2023-01-17T21:56:20.135Z,98575.72
2023-01-17T21:58:53.210Z,98582.59
2023-01-17T22:01:22.678Z,98583.19
2023-01-17T22:03:53.704Z,98588.88
2023-01-17T22:06:22.655Z,98594.31
2023-01-17T22:08:50.188Z,98593.09
2023-01-17T22:11:19.633Z,98588.28
2023-01-17T22:13:47.380Z,98598.81
2023-01-17T22:16:17.360Z,98602.06
2023-01-17T22:18:46.002Z,98598.63
2023-01-17T22:21:18.065Z,98606.50
2023-01-17T22:23:47.326Z,98614.19
2023-01-17T22:26:15.538Z,98614.19
2023-01-17T22:28:43.939Z,98615.63
2023-01-17T22:31:13.319Z,98627.50
2023-01-17T22:33:43.251Z,98631.56
2023-01-17T22:36:13.483Z,98625.13
2023-01-17T22:38:43.259Z,98636.44
2023-01-17T22:41:13.060Z,98636.44
2023-01-17T22:43:42.572Z,98636.03
2023-01-17T22:46:12.469Z,98636.81
2023-01-17T22:48:40.816Z,98636.81
2023-01-17T22:51:09.892Z,98638.25
2023-01-17T22:53:42.859Z,98639.25
2023-01-17T22:56:12.486Z,98634.78
2023-01-17T22:58:42.240Z,98631.75
2023-01-17T23:01:12.781Z,98638.03
2023-01-17T23:03:41.620Z,98641.69
2023-01-17T23:06:11.802Z,98643.91
2023-01-17T23:08:40.800Z,98639.44
2023-01-17T23:11:36.567Z,98639.66
2023-01-17T23:14:04.121Z,98646.94
2023-01-17T23:16:49.455Z,98644.16
2023-01-17T23:19:23.091Z,98645.34
2023-01-17T23:22:09.256Z,98648.56
2023-01-17T23:24:39.388Z,98650.22
2023-01-17T23:27:34.363Z,98646.34
2023-01-17T23:30:02.590Z,98654.84
2023-01-17T23:32:30.130Z,98663.97
2023-01-17T23:34:57.672Z,98670.44
2023-01-17T23:37:50.860Z,98672.44
2023-01-17T23:40:19.260Z,98670.41
2023-01-17T23:43:05.548Z,98678.34
2023-01-17T23:45:35.322Z,98668.38
2023-01-17T23:48:05.368Z,98678.69
2023-01-17T23:50:33.042Z,98677.09
2023-01-17T23:53:05.737Z,98673.25
2023-01-17T23:55:33.334Z,98677.88
2023-01-17T23:58:02.162Z,98676.50
